Time;durP1;ratioP1;P1;durP2;ratioP2;P2;SDS_P1;SDS_P2;PMS_P1;PMS_P2;Temp;Humidity;BMP_temperature;BMP_pressure;BME280_temperature;BME280_humidity;BME280_pressure;Samples;Min_cycle;Max_cycle;Signal;HPM_P1;HPM_P2
2021/01/01 00:00:37;;;;;;;;;;;3.10;99.90;;;;;;5047798;28;19913;-86
2021/01/01 00:03:05;;;;;;;;;;;3.10;99.90;;;;;;5049824;28;20287;-86
2021/01/01 00:05:31;;;;;;;;;;;3.10;99.90;;;;;;5049795;28;20160;-85
2021/01/01 00:07:57;;;;;;;;;;;3.10;99.90;;;;;;5058393;28;19920;-85
2021/01/01 00:10:22;;;;;;;;;;;3.10;99.90;;;;;;5036917;28;19913;-84
2021/01/01 00:12:48;;;;;;;;;;;3.10;99.90;;;;;;5143456;22;19929;-85
2021/01/01 00:15:16;;;;;;;;;;;3.10;99.90;;;;;;5039657;28;19923;-85
2021/01/01 00:17:41;;;;;;;;;;;3.10;99.90;;;;;;5049601;28;19964;-85
2021/01/01 00:20:11;;;;;;;;;;;3.10;99.90;;;;;;5055168;28;19994;-85
2021/01/01 00:22:37;;;;;;;;;;;3.10;99.90;;;;;;5044625;28;19909;-85
2021/01/01 00:25:06;;;;;;;;;;;3.10;99.90;;;;;;5052301;28;20346;-86
2021/01/01 00:27:32;;;;;;;;;;;3.10;99.90;;;;;;5047641;28;19925;-86
2021/01/01 00:29:58;;;;;;;;;;;3.10;99.90;;;;;;5047442;28;19920;-86
2021/01/01 00:32:26;;;;;;;;;;;3.10;99.90;;;;;;5049245;28;19928;-85
2021/01/01 00:34:52;;;;;;;;;;;3.10;99.90;;;;;;5050035;28;19924;-85
2021/01/01 00:37:20;;;;;;;;;;;3.10;99.90;;;;;;5047928;28;19917;-85
2021/01/01 00:39:48;;;;;;;;;;;3.10;99.90;;;;;;5045235;28;20001;-85
2021/01/01 00:42:13;;;;;;;;;;;3.10;99.90;;;;;;5050199;28;20478;-86
2021/01/01 00:44:42;;;;;;;;;;;3.10;99.90;;;;;;5040561;28;19993;-85
2021/01/01 00:47:11;;;;;;;;;;;3.10;99.90;;;;;;5048526;28;19963;-86
2021/01/01 00:49:37;;;;;;;;;;;3.20;99.90;;;;;;5031420;28;19949;-85
2021/01/01 00:52:03;;;;;;;;;;;3.10;99.90;;;;;;5036395;28;19967;-86
2021/01/01 00:54:28;;;;;;;;;;;3.10;99.90;;;;;;5041422;28;19913;-85
2021/01/01 00:56:54;;;;;;;;;;;3.10;99.90;;;;;;5048623;28;20004;-85
2021/01/01 00:59:19;;;;;;;;;;;3.10;99.90;;;;;;5049381;28;20368;-85
2021/01/01 01:01:45;;;;;;;;;;;3.10;99.90;;;;;;5051258;28;20375;-86
2021/01/01 01:04:13;;;;;;;;;;;3.10;99.90;;;;;;5056736;28;20256;-86
2021/01/01 01:06:39;;;;;;;;;;;3.10;99.90;;;;;;5055374;28;19963;-85
2021/01/01 01:09:07;;;;;;;;;;;3.10;99.90;;;;;;5058113;28;19944;-86
2021/01/01 01:11:32;;;;;;;;;;;3.10;99.90;;;;;;5052640;28;20330;-85
2021/01/01 01:13:58;;;;;;;;;;;3.10;99.90;;;;;;5043848;28;19925;-85
2021/01/01 01:16:25;;;;;;;;;;;3.20;99.90;;;;;;5167125;23;20831;-84
2021/01/01 01:18:51;;;;;;;;;;;3.10;99.90;;;;;;5096229;28;19931;-85
2021/01/01 01:21:16;;;;;;;;;;;3.10;99.90;;;;;;5108425;27;19911;-85
2021/01/01 01:23:44;;;;;;;;;;;3.20;99.90;;;;;;5110123;27;19915;-84
2021/01/01 01:26:12;;;;;;;;;;;3.10;99.90;;;;;;5096601;27;19916;-84
2021/01/01 01:28:38;;;;;;;;;;;3.10;99.90;;;;;;5094513;27;19915;-84
2021/01/01 01:31:03;;;;;;;;;;;3.10;99.90;;;;;;5078496;28;19919;-84
2021/01/01 01:33:29;;;;;;;;;;;3.10;99.90;;;;;;5080917;27;20378;-84
2021/01/01 01:35:57;;;;;;;;;;;3.10;99.90;;;;;;5091989;28;20358;-85
2021/01/01 01:38:25;;;;;;;;;;;3.20;99.90;;;;;;5095347;28;19930;-85
2021/01/01 01:40:50;;;;;;;;;;;3.10;99.90;;;;;;5095543;28;20362;-84
2021/01/01 01:43:16;;;;;;;;;;;3.10;99.90;;;;;;5096036;28;20014;-85
2021/01/01 01:45:41;;;;;;;;;;;3.10;99.90;;;;;;5101800;27;19980;-87
2021/01/01 01:48:11;;;;;;;;;;;3.10;99.90;;;;;;5095824;28;20290;-85
2021/01/01 01:50:39;;;;;;;;;;;3.10;99.90;;;;;;5101422;27;19912;-85
2021/01/01 01:53:08;;;;;;;;;;;3.10;99.90;;;;;;5095735;28;20275;-85
2021/01/01 01:55:36;;;;;;;;;;;3.10;99.90;;;;;;5100625;27;19918;-85
2021/01/01 01:58:06;;;;;;;;;;;3.10;99.90;;;;;;5100151;28;19938;-85
2021/01/01 02:03:05;;;;;;;;;;;3.10;99.90;;;;;;5114887;27;19942;-85
2021/01/01 02:05:31;;;;;;;;;;;3.10;99.90;;;;;;5099079;28;19916;-85
2021/01/01 02:07:56;;;;;;;;;;;3.10;99.90;;;;;;5095706;28;20391;-84
2021/01/01 02:10:24;;;;;;;;;;;3.10;99.90;;;;;;5094918;28;19985;-85
2021/01/01 02:12:50;;;;;;;;;;;3.10;99.90;;;;;;5098686;27;20322;-84
2021/01/01 02:15:18;;;;;;;;;;;3.10;99.90;;;;;;5096810;28;19912;-85
2021/01/01 02:17:43;;;;;;;;;;;3.10;99.90;;;;;;5100721;27;20409;-83
2021/01/01 02:20:10;;;;;;;;;;;3.10;99.90;;;;;;5098496;28;19919;-84
2021/01/01 02:22:36;;;;;;;;;;;3.10;99.90;;;;;;5098621;28;19938;-85
2021/01/01 02:25:05;;;;;;;;;;;3.10;99.90;;;;;;5097799;28;20206;-85
2021/01/01 02:27:31;;;;;;;;;;;3.10;99.90;;;;;;5098309;28;19965;-85
2021/01/01 02:29:56;;;;;;;;;;;3.10;99.90;;;;;;5093802;28;19921;-86
2021/01/01 02:32:22;;;;;;;;;;;3.20;99.90;;;;;;5082516;28;19912;-85
2021/01/01 02:34:50;;;;;;;;;;;3.20;99.90;;;;;;5082090;28;19908;-85
2021/01/01 02:37:15;;;;;;;;;;;3.10;99.90;;;;;;5080633;28;19915;-85
2021/01/01 02:39:43;;;;;;;;;;;3.10;99.90;;;;;;5094717;28;19914;-84
2021/01/01 02:42:09;;;;;;;;;;;3.20;99.90;;;;;;5094490;28;19911;-86
2021/01/01 02:44:37;;;;;;;;;;;3.20;99.90;;;;;;5094176;28;19922;-85
2021/01/01 02:47:03;;;;;;;;;;;3.10;99.90;;;;;;5094937;28;19941;-84
2021/01/01 02:49:29;;;;;;;;;;;3.20;99.90;;;;;;5094713;28;19911;-85
2021/01/01 02:51:54;;;;;;;;;;;3.20;99.90;;;;;;5094774;28;19918;-84
2021/01/01 02:54:20;;;;;;;;;;;3.20;99.90;;;;;;5094269;28;20328;-85
2021/01/01 02:56:46;;;;;;;;;;;3.20;99.90;;;;;;5094272;28;19951;-84
2021/01/01 02:59:11;;;;;;;;;;;3.20;99.90;;;;;;5112241;28;19912;-85
2021/01/01 03:01:37;;;;;;;;;;;3.20;99.90;;;;;;5094764;28;20396;-85
2021/01/01 03:04:02;;;;;;;;;;;3.20;99.90;;;;;;5093358;28;20359;-85
2021/01/01 03:06:28;;;;;;;;;;;3.20;99.90;;;;;;5094068;28;19916;-85
2021/01/01 03:08:56;;;;;;;;;;;3.20;99.90;;;;;;5093906;28;19954;-85
2021/01/01 03:11:21;;;;;;;;;;;3.20;99.90;;;;;;5094088;28;19950;-85
2021/01/01 03:13:49;;;;;;;;;;;3.20;99.90;;;;;;5093843;28;19947;-86
2021/01/01 03:16:17;;;;;;;;;;;3.20;99.90;;;;;;5094244;28;19912;-85
2021/01/01 03:18:43;;;;;;;;;;;3.20;99.90;;;;;;5093806;28;19924;-84
2021/01/01 03:21:08;;;;;;;;;;;3.20;99.90;;;;;;5094112;28;19912;-86
2021/01/01 03:23:34;;;;;;;;;;;3.20;99.90;;;;;;5202607;22;20851;-84
2021/01/01 03:26:02;;;;;;;;;;;3.20;99.90;;;;;;5078330;28;20011;-86
2021/01/01 03:28:27;;;;;;;;;;;3.20;99.90;;;;;;5073296;28;19920;-85
2021/01/01 03:30:53;;;;;;;;;;;3.20;99.90;;;;;;5084956;28;20392;-85
2021/01/01 03:33:19;;;;;;;;;;;3.20;99.90;;;;;;5073425;28;19916;-85
2021/01/01 03:35:44;;;;;;;;;;;3.20;99.90;;;;;;5073672;28;20015;-85
2021/01/01 03:38:10;;;;;;;;;;;3.20;99.90;;;;;;5073303;28;19912;-85
2021/01/01 03:40:35;;;;;;;;;;;3.20;99.90;;;;;;5073003;28;20291;-85
2021/01/01 03:43:01;;;;;;;;;;;3.20;99.90;;;;;;5073075;28;19916;-85
2021/01/01 03:45:28;;;;;;;;;;;3.20;99.90;;;;;;5073045;28;19923;-84
2021/01/01 03:47:54;;;;;;;;;;;3.20;99.90;;;;;;5085162;28;20113;-86
2021/01/01 03:50:19;;;;;;;;;;;3.20;99.90;;;;;;5073654;28;20038;-85
2021/01/01 03:52:45;;;;;;;;;;;3.20;99.90;;;;;;5077876;28;19912;-85
2021/01/01 03:55:10;;;;;;;;;;;3.20;99.90;;;;;;5203177;22;19946;-85
2021/01/01 03:57:40;;;;;;;;;;;3.20;99.90;;;;;;5110112;27;19915;-85
2021/01/01 04:00:08;;;;;;;;;;;3.20;99.90;;;;;;5113873;27;19911;-85
2021/01/01 04:02:36;;;;;;;;;;;3.20;99.90;;;;;;5113603;27;20245;-85
2021/01/01 04:05:02;;;;;;;;;;;3.20;99.90;;;;;;5113229;27;20123;-85
2021/01/01 04:07:30;;;;;;;;;;;3.20;99.90;;;;;;5113456;27;19911;-86
2021/01/01 04:09:56;;;;;;;;;;;3.20;99.90;;;;;;5122983;27;19934;-85
2021/01/01 04:12:22;;;;;;;;;;;3.20;99.90;;;;;;5113605;27;20417;-85
2021/01/01 04:14:49;;;;;;;;;;;3.20;99.90;;;;;;5107587;27;19914;-86
2021/01/01 04:17:15;;;;;;;;;;;3.10;99.90;;;;;;5099066;28;20374;-85
2021/01/01 04:19:40;;;;;;;;;;;3.20;99.90;;;;;;5092549;28;19912;-86
2021/01/01 04:22:09;;;;;;;;;;;3.20;99.90;;;;;;5103462;27;20420;-85
2021/01/01 04:24:37;;;;;;;;;;;3.20;99.90;;;;;;5107234;28;19994;-85
2021/01/01 04:27:02;;;;;;;;;;;3.20;99.90;;;;;;5113284;28;20013;-86
2021/01/01 04:29:28;;;;;;;;;;;3.20;99.90;;;;;;5132051;27;19955;-86
2021/01/01 04:31:53;;;;;;;;;;;3.20;99.90;;;;;;5099004;27;20342;-85
2021/01/01 04:34:21;;;;;;;;;;;3.10;99.90;;;;;;5113048;28;19907;-86
2021/01/01 04:36:47;;;;;;;;;;;3.20;99.90;;;;;;5113219;28;20366;-86
2021/01/01 04:39:12;;;;;;;;;;;3.20;99.90;;;;;;5112840;28;19918;-86
2021/01/01 04:41:40;;;;;;;;;;;3.20;99.90;;;;;;5131939;28;20009;-85
2021/01/01 04:44:08;;;;;;;;;;;3.20;99.90;;;;;;5098320;28;19936;-85
2021/01/01 04:46:36;;;;;;;;;;;3.20;99.90;;;;;;5105570;28;19916;-86
2021/01/01 04:49:02;;;;;;;;;;;3.20;99.90;;;;;;5110879;28;20350;-85
2021/01/01 04:51:30;;;;;;;;;;;3.20;99.90;;;;;;5113320;28;20369;-86
2021/01/01 04:54:03;;;;;;;;;;;3.20;99.90;;;;;;5098052;28;20006;-85
2021/01/01 04:56:29;;;;;;;;;;;3.20;99.90;;;;;;5183374;22;19970;-86
2021/01/01 04:58:55;;;;;;;;;;;3.20;99.90;;;;;;5052361;28;19963;-85
2021/01/01 05:01:24;;;;;;;;;;;3.20;99.90;;;;;;5052605;28;19913;-86
2021/01/01 05:03:54;;;;;;;;;;;3.20;99.90;;;;;;5052183;28;19920;-85
2021/01/01 05:06:29;;;;;;;;;;;3.20;99.90;;;;;;5070357;28;19938;-85
2021/01/01 05:08:55;;;;;;;;;;;3.20;99.90;;;;;;5052202;28;19919;-86
2021/01/01 05:11:21;;;;;;;;;;;3.20;99.90;;;;;;5070137;28;20355;-85
2021/01/01 05:13:56;;;;;;;;;;;3.20;99.90;;;;;;5051829;28;20054;-85
2021/01/01 05:16:24;;;;;;;;;;;3.20;99.90;;;;;;5052316;28;20446;-86
2021/01/01 05:18:50;;;;;;;;;;;3.20;99.90;;;;;;5052057;28;19912;-85
2021/01/01 05:21:23;;;;;;;;;;;3.20;99.90;;;;;;5052620;28;20046;-86
2021/01/01 05:23:50;;;;;;;;;;;3.20;99.90;;;;;;5051896;28;20374;-87
2021/01/01 05:26:19;;;;;;;;;;;3.20;99.90;;;;;;5052315;28;19913;-85
2021/01/01 05:28:51;;;;;;;;;;;3.20;99.90;;;;;;5053488;28;20003;-86
2021/01/01 05:31:17;;;;;;;;;;;3.20;99.90;;;;;;5057687;28;19939;-86
2021/01/01 05:33:43;;;;;;;;;;;3.20;99.90;;;;;;5053962;28;20367;-85
2021/01/01 05:36:09;;;;;;;;;;;3.20;99.90;;;;;;5052224;28;19920;-86
2021/01/01 05:38:40;;;;;;;;;;;3.20;99.90;;;;;;5051780;28;19909;-85
2021/01/01 05:41:08;;;;;;;;;;;3.20;99.90;;;;;;5053997;28;19999;-85
2021/01/01 05:43:33;;;;;;;;;;;3.20;99.90;;;;;;5053457;28;19963;-85
2021/01/01 05:46:10;;;;;;;;;;;3.10;99.90;;;;;;5051594;28;19912;-86
2021/01/01 05:48:38;;;;;;;;;;;3.10;99.90;;;;;;5051784;28;20414;-86
2021/01/01 05:51:05;;;;;;;;;;;3.10;99.90;;;;;;5055548;28;19912;-85
2021/01/01 05:53:30;;;;;;;;;;;3.10;99.90;;;;;;5055588;28;19913;-86
2021/01/01 05:56:05;;;;;;;;;;;3.10;99.90;;;;;;5052115;28;19924;-85
2021/01/01 05:58:30;;;;;;;;;;;3.10;99.90;;;;;;5052159;28;20003;-86
2021/01/01 06:00:58;;;;;;;;;;;3.10;99.90;;;;;;5052175;28;20054;-85
2021/01/01 06:03:25;;;;;;;;;;;3.00;99.90;;;;;;5051962;28;20295;-85
2021/01/01 06:05:54;;;;;;;;;;;3.10;99.90;;;;;;5051978;28;19963;-86
2021/01/01 06:08:24;;;;;;;;;;;3.10;99.90;;;;;;5051481;28;19920;-86
2021/01/01 06:10:50;;;;;;;;;;;3.00;99.90;;;;;;5052001;28;19909;-86
2021/01/01 06:13:20;;;;;;;;;;;3.00;99.90;;;;;;5052257;28;19909;-86
2021/01/01 06:15:56;;;;;;;;;;;3.00;99.90;;;;;;5051727;28;19912;-86
2021/01/01 06:18:26;;;;;;;;;;;3.00;99.90;;;;;;5052087;28;19974;-86
2021/01/01 06:20:59;;;;;;;;;;;2.90;99.90;;;;;;5051853;28;19917;-86
2021/01/01 06:23:32;;;;;;;;;;;2.90;99.90;;;;;;5051299;28;19927;-86
2021/01/01 06:26:00;;;;;;;;;;;2.90;99.90;;;;;;5051797;28;19917;-86
2021/01/01 06:28:26;;;;;;;;;;;2.90;99.90;;;;;;5051499;28;20331;-85
2021/01/01 06:30:53;;;;;;;;;;;2.90;99.90;;;;;;5051878;28;19966;-85
2021/01/01 06:33:21;;;;;;;;;;;2.90;99.90;;;;;;5051480;28;20356;-85
2021/01/01 06:35:47;;;;;;;;;;;2.90;99.90;;;;;;5051795;28;20007;-85
2021/01/01 06:38:35;;;;;;;;;;;2.90;99.90;;;;;;5051748;28;19995;-85
2021/01/01 06:41:00;;;;;;;;;;;2.90;99.90;;;;;;5055936;28;19913;-85
2021/01/01 06:43:46;;;;;;;;;;;2.90;99.90;;;;;;5051112;28;20000;-86
2021/01/01 06:46:11;;;;;;;;;;;2.80;99.90;;;;;;5050922;28;19974;-85
2021/01/01 06:48:37;;;;;;;;;;;2.80;99.90;;;;;;5051137;28;19917;-86
2021/01/01 06:51:03;;;;;;;;;;;2.80;99.90;;;;;;5051196;28;19912;-85
2021/01/01 06:53:29;;;;;;;;;;;2.80;99.90;;;;;;5051543;28;19912;-85
2021/01/01 06:56:10;;;;;;;;;;;2.80;99.90;;;;;;5050906;28;19994;-85
2021/01/01 06:58:36;;;;;;;;;;;2.80;99.90;;;;;;5050909;28;19909;-85
2021/01/01 07:01:02;;;;;;;;;;;2.80;99.90;;;;;;5036222;28;19912;-86
2021/01/01 07:03:30;;;;;;;;;;;2.80;99.90;;;;;;5050833;28;19921;-85
2021/01/01 07:05:56;;;;;;;;;;;2.80;99.90;;;;;;5050659;28;19966;-85
2021/01/01 07:08:40;;;;;;;;;;;2.70;99.90;;;;;;5050453;28;19912;-86
2021/01/01 07:11:26;;;;;;;;;;;2.70;99.90;;;;;;5050372;28;20410;-85
2021/01/01 07:13:55;;;;;;;;;;;2.70;99.90;;;;;;5051448;28;19912;-86
2021/01/01 07:16:22;;;;;;;;;;;2.70;99.90;;;;;;5050574;28;20007;-86
2021/01/01 07:18:49;;;;;;;;;;;2.70;99.90;;;;;;5039060;28;19913;-85
2021/01/01 07:21:18;;;;;;;;;;;2.70;99.90;;;;;;5047862;28;19921;-86
2021/01/01 07:23:44;;;;;;;;;;;2.70;99.90;;;;;;5050192;28;19917;-85
2021/01/01 07:26:10;;;;;;;;;;;2.60;99.90;;;;;;5052012;28;19920;-86
2021/01/01 07:28:39;;;;;;;;;;;2.60;99.90;;;;;;5052119;28;19913;-85
2021/01/01 07:31:10;;;;;;;;;;;2.70;99.90;;;;;;5049893;28;20005;-86
2021/01/01 07:33:35;;;;;;;;;;;2.70;99.90;;;;;;5050272;28;19913;-85
2021/01/01 07:36:02;;;;;;;;;;;2.70;99.90;;;;;;5050740;28;19965;-85
2021/01/01 07:38:31;;;;;;;;;;;2.70;99.90;;;;;;5049346;28;20339;-86
2021/01/01 07:40:58;;;;;;;;;;;2.70;99.90;;;;;;5046669;28;19924;-86
2021/01/01 07:43:24;;;;;;;;;;;2.70;99.90;;;;;;5049196;28;19921;-86
2021/01/01 07:45:52;;;;;;;;;;;2.70;99.90;;;;;;5041367;28;20368;-85
2021/01/01 07:48:17;;;;;;;;;;;2.70;99.90;;;;;;5044077;28;20320;-86
2021/01/01 07:50:43;;;;;;;;;;;2.70;99.90;;;;;;5044749;28;20314;-85
2021/01/01 07:53:11;;;;;;;;;;;2.70;99.90;;;;;;5048949;28;19913;-86
2021/01/01 07:55:42;;;;;;;;;;;2.70;99.90;;;;;;5042833;28;19929;-85
2021/01/01 07:58:09;;;;;;;;;;;2.70;99.90;;;;;;5047532;28;19912;-85
2021/01/01 08:00:36;;;;;;;;;;;2.70;99.90;;;;;;5044331;28;19919;-85
2021/01/01 08:03:09;;;;;;;;;;;2.70;99.90;;;;;;5049348;28;20369;-86
2021/01/01 08:05:35;;;;;;;;;;;2.70;99.90;;;;;;5049598;28;20378;-85
2021/01/01 08:08:11;;;;;;;;;;;2.70;99.90;;;;;;5049608;28;19943;-86
2021/01/01 08:10:37;;;;;;;;;;;2.70;99.90;;;;;;5047812;28;20430;-86
2021/01/01 08:13:10;;;;;;;;;;;2.70;99.90;;;;;;5049633;28;19956;-85
2021/01/01 08:15:36;;;;;;;;;;;2.70;99.90;;;;;;5049701;28;19913;-86
2021/01/01 08:18:15;;;;;;;;;;;2.70;99.90;;;;;;5052269;28;19917;-85
2021/01/01 08:20:41;;;;;;;;;;;2.70;99.90;;;;;;5056716;28;19955;-86
2021/01/01 08:23:08;;;;;;;;;;;2.80;99.90;;;;;;5048148;28;20020;-85
2021/01/01 08:25:34;;;;;;;;;;;2.80;99.90;;;;;;5040144;28;19956;-85
2021/01/01 08:28:01;;;;;;;;;;;2.80;99.90;;;;;;5049274;28;20023;-85
2021/01/01 08:30:29;;;;;;;;;;;2.80;99.90;;;;;;5049400;28;19948;-85
2021/01/01 08:32:56;;;;;;;;;;;2.80;99.90;;;;;;5049288;28;19912;-85
2021/01/01 08:35:21;;;;;;;;;;;2.90;99.90;;;;;;5049315;28;19912;-85
2021/01/01 08:37:48;;;;;;;;;;;2.90;99.90;;;;;;5049511;28;19909;-85
2021/01/01 08:40:16;;;;;;;;;;;2.90;99.90;;;;;;5049066;28;19962;-85
2021/01/01 08:42:44;;;;;;;;;;;2.90;99.90;;;;;;5050876;28;19913;-84
2021/01/01 08:45:10;;;;;;;;;;;2.90;99.90;;;;;;5048917;28;19971;-86
2021/01/01 08:47:42;;;;;;;;;;;3.00;99.90;;;;;;5049493;28;20352;-86
2021/01/01 08:50:23;;;;;;;;;;;2.90;99.90;;;;;;5049527;28;20529;-86
2021/01/01 08:52:50;;;;;;;;;;;3.00;99.90;;;;;;5050140;28;19913;-85
2021/01/01 08:55:18;;;;;;;;;;;2.90;99.90;;;;;;5052462;28;20059;-85
2021/01/01 08:57:45;;;;;;;;;;;3.00;99.90;;;;;;5052094;28;19920;-85
2021/01/01 09:00:13;;;;;;;;;;;3.00;99.90;;;;;;5052134;28;20007;-85
2021/01/01 09:02:39;;;;;;;;;;;3.00;99.90;;;;;;5049195;28;19912;-85
2021/01/01 09:05:05;;;;;;;;;;;3.00;99.90;;;;;;5051856;28;20474;-86
2021/01/01 09:07:31;;;;;;;;;;;3.00;99.90;;;;;;5051853;28;19962;-85
2021/01/01 09:09:56;;;;;;;;;;;3.10;99.90;;;;;;5052166;28;20406;-85
2021/01/01 09:12:22;;;;;;;;;;;3.20;99.90;;;;;;5047208;28;19924;-85
2021/01/01 09:14:49;;;;;;;;;;;3.20;99.90;;;;;;5044889;28;19986;-85
2021/01/01 09:17:18;;;;;;;;;;;3.20;99.90;;;;;;5052657;28;19950;-85
2021/01/01 09:19:44;;;;;;;;;;;3.20;99.90;;;;;;5051678;28;20243;-85
2021/01/01 09:22:18;;;;;;;;;;;3.30;99.90;;;;;;5053200;28;20240;-85
2021/01/01 09:24:47;;;;;;;;;;;3.30;99.90;;;;;;5052928;28;19926;-85
2021/01/01 09:27:15;;;;;;;;;;;3.30;99.90;;;;;;5056012;28;20026;-85
2021/01/01 09:29:41;;;;;;;;;;;3.30;99.90;;;;;;5055285;28;20420;-86
2021/01/01 09:32:08;;;;;;;;;;;3.40;99.90;;;;;;5055797;28;19951;-85
2021/01/01 09:34:33;;;;;;;;;;;3.40;99.90;;;;;;5055772;28;19920;-85
2021/01/01 09:37:05;;;;;;;;;;;3.40;99.90;;;;;;5055556;28;19912;-85
2021/01/01 09:39:31;;;;;;;;;;;3.40;99.90;;;;;;5055796;28;20046;-86
2021/01/01 09:41:59;;;;;;;;;;;3.40;99.90;;;;;;5059318;28;20009;-85
2021/01/01 09:44:30;;;;;;;;;;;3.40;99.90;;;;;;5055678;28;19931;-85
2021/01/01 09:46:56;;;;;;;;;;;3.50;99.90;;;;;;5049431;28;19917;-85
2021/01/01 09:49:24;;;;;;;;;;;3.50;99.90;;;;;;5048243;28;19920;-85
2021/01/01 09:51:49;;;;;;;;;;;3.50;99.90;;;;;;5066655;28;20020;-85
2021/01/01 09:54:20;;;;;;;;;;;3.50;99.90;;;;;;5047152;28;20514;-86
2021/01/01 09:56:45;;;;;;;;;;;3.60;99.90;;;;;;5043691;28;20277;-85
2021/01/01 09:59:11;;;;;;;;;;;3.60;99.90;;;;;;5039102;28;19924;-85
2021/01/01 10:01:36;;;;;;;;;;;3.70;99.90;;;;;;5042249;28;19925;-86
2021/01/01 10:04:02;;;;;;;;;;;3.70;99.90;;;;;;5042677;28;20360;-86
2021/01/01 10:06:27;;;;;;;;;;;3.70;99.90;;;;;;5050992;28;20384;-86
2021/01/01 10:08:53;;;;;;;;;;;3.60;99.90;;;;;;5049377;28;19928;-85
2021/01/01 10:11:18;;;;;;;;;;;3.60;99.90;;;;;;5051853;28;19940;-85
2021/01/01 10:13:47;;;;;;;;;;;3.60;99.90;;;;;;5051580;28;20296;-86
2021/01/01 10:16:12;;;;;;;;;;;3.60;99.90;;;;;;5052060;28;19912;-85
2021/01/01 10:18:41;;;;;;;;;;;3.60;99.90;;;;;;5052195;28;20390;-85
2021/01/01 10:21:10;;;;;;;;;;;3.70;99.90;;;;;;5052137;28;19924;-85
2021/01/01 10:23:36;;;;;;;;;;;3.70;99.90;;;;;;5049903;28;20011;-85
2021/01/01 10:26:04;;;;;;;;;;;3.70;99.90;;;;;;5046482;28;20020;-85
2021/01/01 10:28:29;;;;;;;;;;;3.70;99.90;;;;;;5039048;28;19944;-85
2021/01/01 10:30:56;;;;;;;;;;;3.70;99.90;;;;;;5165576;23;19963;-85
2021/01/01 10:33:22;;;;;;;;;;;3.70;99.90;;;;;;5069182;28;20396;-86
2021/01/01 10:35:47;;;;;;;;;;;3.80;99.90;;;;;;5056626;28;19920;-85
2021/01/01 10:38:13;;;;;;;;;;;3.80;99.90;;;;;;5063552;28;19913;-85
2021/01/01 10:40:38;;;;;;;;;;;3.80;99.90;;;;;;5061761;28;19919;-87
2021/01/01 10:43:04;;;;;;;;;;;3.80;99.90;;;;;;5053993;28;19920;-85
2021/01/01 10:45:29;;;;;;;;;;;3.80;99.90;;;;;;5050934;28;20339;-85
2021/01/01 10:47:55;;;;;;;;;;;3.80;99.90;;;;;;5060963;28;19944;-85
2021/01/01 10:50:23;;;;;;;;;;;3.90;99.90;;;;;;5063221;28;19912;-84
2021/01/01 10:52:48;;;;;;;;;;;3.90;99.90;;;;;;5067505;28;19920;-85
2021/01/01 10:55:18;;;;;;;;;;;3.90;99.90;;;;;;5061282;28;19916;-85
2021/01/01 10:57:43;;;;;;;;;;;4.00;99.90;;;;;;5058162;28;20455;-86
2021/01/01 11:00:12;;;;;;;;;;;4.00;99.90;;;;;;5050764;28;19944;-85
2021/01/01 11:02:37;;;;;;;;;;;4.00;99.90;;;;;;5052150;28;19916;-86
2021/01/01 11:05:03;;;;;;;;;;;4.00;99.90;;;;;;5063390;28;19924;-85
2021/01/01 11:07:28;;;;;;;;;;;4.10;99.90;;;;;;5050370;28;20368;-86
2021/01/01 11:09:54;;;;;;;;;;;4.10;99.90;;;;;;5044566;28;20391;-86
2021/01/01 11:12:22;;;;;;;;;;;4.10;99.90;;;;;;5039485;28;19921;-86
2021/01/01 12:27:05;;;;;;;;;;;4.30;99.90;;;;;;5111155;28;20302;-89
2021/01/01 12:29:34;;;;;;;;;;;4.30;99.90;;;;;;5093196;28;20006;-89
2021/01/01 12:32:02;;;;;;;;;;;4.40;99.90;;;;;;5093531;28;19957;-89
2021/01/01 12:34:27;;;;;;;;;;;4.40;99.90;;;;;;5111388;28;19912;-89
2021/01/01 12:36:55;;;;;;;;;;;4.40;99.90;;;;;;5093226;28;19923;-91
2021/01/01 12:39:21;;;;;;;;;;;4.40;99.90;;;;;;5093174;28;19912;-90
2021/01/01 12:41:49;;;;;;;;;;;4.50;99.90;;;;;;5092731;28;19918;-88
2021/01/01 12:44:15;;;;;;;;;;;4.60;99.90;;;;;;5093023;28;19920;-90
2021/01/01 12:46:44;;;;;;;;;;;4.60;99.90;;;;;;5093140;28;19965;-89
2021/01/01 12:49:09;;;;;;;;;;;4.60;99.90;;;;;;5093048;28;19965;-89
2021/01/01 12:51:37;;;;;;;;;;;4.60;99.90;;;;;;5337924;22;19944;-86
2021/01/01 12:54:05;;;;;;;;;;;4.50;99.90;;;;;;5112674;28;19918;-85
2021/01/01 12:56:33;;;;;;;;;;;4.50;99.90;;;;;;5113174;28;19934;-86
2021/01/01 12:58:59;;;;;;;;;;;4.50;99.90;;;;;;5123324;27;19916;-85
2021/01/01 13:01:27;;;;;;;;;;;4.50;99.90;;;;;;5113987;28;20081;-85
2021/01/01 13:03:52;;;;;;;;;;;4.50;99.90;;;;;;5113672;28;19920;-86
2021/01/01 13:06:18;;;;;;;;;;;4.50;99.90;;;;;;5114328;28;19922;-85
2021/01/01 13:08:44;;;;;;;;;;;4.40;99.90;;;;;;5113576;28;19911;-84
2021/01/01 13:11:09;;;;;;;;;;;4.40;99.90;;;;;;5114252;28;19981;-85
2021/01/01 13:13:35;;;;;;;;;;;4.40;99.90;;;;;;5113904;28;19912;-85
2021/01/01 13:16:03;;;;;;;;;;;4.40;99.90;;;;;;5116382;27;20381;-85
2021/01/01 13:18:28;;;;;;;;;;;4.40;99.90;;;;;;5126662;27;19918;-85
2021/01/01 13:20:54;;;;;;;;;;;4.40;99.90;;;;;;5114703;27;19911;-86
2021/01/01 13:23:22;;;;;;;;;;;4.30;99.90;;;;;;5127090;27;19915;-86
2021/01/01 13:25:50;;;;;;;;;;;4.30;99.90;;;;;;5116608;27;19915;-85
2021/01/01 13:28:15;;;;;;;;;;;4.30;99.90;;;;;;5135044;27;19929;-85
2021/01/01 13:30:41;;;;;;;;;;;4.30;99.90;;;;;;5116837;27;19911;-84
2021/01/01 13:33:06;;;;;;;;;;;4.30;99.90;;;;;;5116579;27;19911;-84
2021/01/01 13:35:32;;;;;;;;;;;4.30;99.90;;;;;;5117017;27;20293;-85
2021/01/01 13:37:57;;;;;;;;;;;4.30;99.90;;;;;;5114318;27;20496;-84
2021/01/01 13:40:26;;;;;;;;;;;4.30;99.90;;;;;;5126204;27;20423;-85
2021/01/01 13:42:52;;;;;;;;;;;4.30;99.90;;;;;;5112923;28;20377;-84
2021/01/01 13:45:20;;;;;;;;;;;4.20;99.90;;;;;;5116205;27;19926;-85
2021/01/01 13:47:45;;;;;;;;;;;4.20;99.90;;;;;;5112938;28;19912;-85
2021/01/01 13:50:14;;;;;;;;;;;4.20;99.90;;;;;;5112708;28;19919;-86
2021/01/01 13:52:40;;;;;;;;;;;4.20;99.90;;;;;;5112299;28;20010;-85
2021/01/01 13:55:06;;;;;;;;;;;4.30;99.90;;;;;;5114944;27;20002;-85
2021/01/01 13:57:33;;;;;;;;;;;4.30;99.90;;;;;;5124772;27;19912;-85
2021/01/01 13:59:59;;;;;;;;;;;4.20;99.90;;;;;;5113636;27;19915;-84
2021/01/01 14:02:24;;;;;;;;;;;4.10;99.90;;;;;;5129730;27;19918;-85
2021/01/01 14:04:52;;;;;;;;;;;4.20;99.90;;;;;;5116080;27;19920;-85
2021/01/01 14:07:18;;;;;;;;;;;4.20;99.90;;;;;;5112741;28;19962;-84
2021/01/01 14:09:46;;;;;;;;;;;4.20;99.90;;;;;;5112331;28;19975;-85
2021/01/01 14:12:14;;;;;;;;;;;4.20;99.90;;;;;;5112809;28;20108;-85
2021/01/01 14:14:40;;;;;;;;;;;4.20;99.90;;;;;;5112579;28;19908;-85
2021/01/01 14:17:05;;;;;;;;;;;4.20;99.90;;;;;;5112642;28;19916;-84
2021/01/01 14:19:33;;;;;;;;;;;4.20;99.90;;;;;;5126693;27;19912;-85
2021/01/01 14:22:01;;;;;;;;;;;4.30;99.90;;;;;;5112368;28;20008;-85
2021/01/01 14:24:27;;;;;;;;;;;4.20;99.90;;;;;;5115343;27;20409;-85
2021/01/01 14:26:52;;;;;;;;;;;4.20;99.90;;;;;;5125060;27;19912;-85
2021/01/01 14:29:20;;;;;;;;;;;4.30;99.90;;;;;;5111770;28;19911;-85
2021/01/01 14:31:49;;;;;;;;;;;4.20;99.90;;;;;;5116059;27;20385;-85
2021/01/01 14:34:14;;;;;;;;;;;4.20;99.90;;;;;;5115403;27;20013;-85
2021/01/01 14:36:47;;;;;;;;;;;4.10;99.90;;;;;;5115902;27;20486;-85
2021/01/01 14:39:13;;;;;;;;;;;4.10;99.90;;;;;;5111468;28;19977;-85
2021/01/01 14:41:41;;;;;;;;;;;4.10;99.90;;;;;;5115273;27;19959;-87
2021/01/01 14:44:08;;;;;;;;;;;4.10;99.90;;;;;;5220610;22;19932;-86
2021/01/01 14:46:36;;;;;;;;;;;4.00;99.90;;;;;;5078750;28;19935;-84
2021/01/01 14:49:04;;;;;;;;;;;4.00;99.90;;;;;;5074605;28;19912;-85
2021/01/01 14:51:34;;;;;;;;;;;4.00;99.90;;;;;;5074406;28;20418;-84
2021/01/01 14:53:59;;;;;;;;;;;3.90;99.90;;;;;;5077007;28;19912;-85
2021/01/01 14:56:32;;;;;;;;;;;3.80;99.90;;;;;;5085405;28;19935;-84
2021/01/01 14:58:57;;;;;;;;;;;3.80;99.90;;;;;;5074727;28;19908;-85
2021/01/01 15:01:23;;;;;;;;;;;3.80;99.90;;;;;;5083666;28;19919;-85
2021/01/01 15:03:51;;;;;;;;;;;3.70;99.90;;;;;;5074139;28;20273;-85
2021/01/01 15:06:17;;;;;;;;;;;3.70;99.90;;;;;;5074553;28;19956;-85
2021/01/01 15:08:44;;;;;;;;;;;3.70;99.90;;;;;;5088633;28;19915;-85
2021/01/01 15:11:12;;;;;;;;;;;3.70;99.90;;;;;;5085836;28;19961;-86
2021/01/01 15:13:37;;;;;;;;;;;3.70;99.90;;;;;;5074172;28;19912;-85
2021/01/01 15:16:03;;;;;;;;;;;3.70;99.90;;;;;;5074222;28;19912;-85
2021/01/01 15:18:31;;;;;;;;;;;3.70;99.90;;;;;;5074264;28;19912;-86
2021/01/01 15:20:56;;;;;;;;;;;3.70;99.90;;;;;;5073709;28;19916;-85
2021/01/01 15:23:27;;;;;;;;;;;3.70;99.90;;;;;;5086325;28;20402;-86
2021/01/01 15:25:54;;;;;;;;;;;3.70;99.90;;;;;;5092330;28;19974;-84
2021/01/01 15:28:25;;;;;;;;;;;3.60;99.90;;;;;;5074054;28;19919;-84
2021/01/01 15:30:53;;;;;;;;;;;3.60;99.90;;;;;;5086715;28;19911;-85
2021/01/01 15:33:21;;;;;;;;;;;3.60;99.90;;;;;;5074930;28;19909;-84
2021/01/01 15:35:48;;;;;;;;;;;3.60;99.90;;;;;;5073921;28;20381;-85
2021/01/01 15:38:14;;;;;;;;;;;3.60;99.90;;;;;;5092007;28;20008;-84
2021/01/01 15:40:43;;;;;;;;;;;3.50;99.90;;;;;;5091825;28;19962;-84
2021/01/01 15:43:18;;;;;;;;;;;3.50;99.90;;;;;;5078120;28;20016;-85
2021/01/01 15:45:46;;;;;;;;;;;3.40;99.90;;;;;;5092032;28;19916;-84